sensor_id;sensor_type;location;lat;lon;timestamp;P1;durP1;ratioP1;P2;durP2;ratioP2
10440;SDS011;5268;49.346;9.522;2023-06-14T03:08:41;7.63;;;6.03;;
10440;SDS011;5268;49.346;9.522;2023-06-14T03:13:44;7.50;;;6.13;;
10440;SDS011;5268;49.346;9.522;2023-06-14T03:18:47;7.70;;;6.10;;
10440;SDS011;5268;49.346;9.522;2023-06-14T03:23:51;7.00;;;6.10;;
10440;SDS011;5268;49.346;9.522;2023-06-14T03:28:53;10.20;;;6.05;;
10440;SDS011;5268;49.346;9.522;2023-06-14T03:33:55;6.03;;;5.43;;
10440;SDS011;5268;49.346;9.522;2023-06-14T03:38:58;7.70;;;6.00;;
10440;SDS011;5268;49.346;9.522;2023-06-14T03:44:00;7.38;;;5.80;;
10440;SDS011;5268;49.346;9.522;2023-06-14T03:49:02;7.32;;;5.45;;
10440;SDS011;5268;49.346;9.522;2023-06-14T03:54:06;10.60;;;7.55;;
10440;SDS011;5268;49.346;9.522;2023-06-14T03:59:08;10.77;;;7.82;;
10440;SDS011;5268;49.346;9.522;2023-06-14T04:04:10;11.88;;;8.13;;
10440;SDS011;5268;49.346;9.522;2023-06-14T04:09:13;13.68;;;8.00;;
10440;SDS011;5268;49.346;9.522;2023-06-14T04:14:15;12.68;;;7.65;;
10440;SDS011;5268;49.346;9.522;2023-06-14T04:19:17;8.25;;;6.15;;
10440;SDS011;5268;49.346;9.522;2023-06-14T04:24:21;9.00;;;6.32;;
10440;SDS011;5268;49.346;9.522;2023-06-14T04:29:23;8.40;;;6.18;;
10440;SDS011;5268;49.346;9.522;2023-06-14T04:34:27;6.72;;;6.03;;
10440;SDS011;5268;49.346;9.522;2023-06-14T04:39:33;6.43;;;5.80;;
10440;SDS011;5268;49.346;9.522;2023-06-14T04:44:35;8.38;;;7.22;;
10440;SDS011;5268;49.346;9.522;2023-06-14T04:49:39;9.25;;;7.30;;
10440;SDS011;5268;49.346;9.522;2023-06-14T04:54:43;7.70;;;6.72;;
10440;SDS011;5268;49.346;9.522;2023-06-14T04:59:46;10.45;;;6.95;;
10440;SDS011;5268;49.346;9.522;2023-06-14T05:04:48;8.38;;;6.57;;
10440;SDS011;5268;49.346;9.522;2023-06-14T05:09:51;7.10;;;6.18;;
10440;SDS011;5268;49.346;9.522;2023-06-14T05:14:53;7.30;;;5.63;;
10440;SDS011;5268;49.346;9.522;2023-06-14T05:19:55;8.88;;;5.50;;
10440;SDS011;5268;49.346;9.522;2023-06-14T05:24:59;7.57;;;6.05;;
10440;SDS011;5268;49.346;9.522;2023-06-14T05:30:01;6.93;;;5.40;;
10440;SDS011;5268;49.346;9.522;2023-06-14T05:35:04;5.55;;;4.80;;
10440;SDS011;5268;49.346;9.522;2023-06-14T05:40:08;8.10;;;5.50;;
10440;SDS011;5268;49.346;9.522;2023-06-14T05:45:11;8.82;;;5.10;;
10440;SDS011;5268;49.346;9.522;2023-06-14T05:50:15;6.53;;;5.00;;
10440;SDS011;5268;49.346;9.522;2023-06-14T05:55:18;8.00;;;4.95;;
10440;SDS011;5268;49.346;9.522;2023-06-14T06:00:21;7.65;;;5.05;;
10440;SDS011;5268;49.346;9.522;2023-06-14T06:05:23;7.72;;;5.15;;
10440;SDS011;5268;49.346;9.522;2023-06-14T06:10:26;5.90;;;5.03;;
10440;SDS011;5268;49.346;9.522;2023-06-14T06:15:28;5.50;;;4.65;;
10440;SDS011;5268;49.346;9.522;2023-06-14T06:20:30;5.30;;;4.57;;
10440;SDS011;5268;49.346;9.522;2023-06-14T06:25:33;5.28;;;4.57;;
10440;SDS011;5268;49.346;9.522;2023-06-14T06:30:35;5.80;;;4.30;;
10440;SDS011;5268;49.346;9.522;2023-06-14T06:35:37;5.10;;;4.55;;
10440;SDS011;5268;49.346;9.522;2023-06-14T06:40:41;6.20;;;4.63;;
10440;SDS011;5268;49.346;9.522;2023-06-14T06:45:43;5.13;;;4.03;;
10440;SDS011;5268;49.346;9.522;2023-06-14T06:50:45;5.32;;;4.45;;
10440;SDS011;5268;49.346;9.522;2023-06-14T06:55:49;5.78;;;4.90;;
10440;SDS011;5268;49.346;9.522;2023-06-14T07:00:51;7.68;;;4.45;;
10440;SDS011;5268;49.346;9.522;2023-06-14T07:05:54;5.50;;;4.50;;
10440;SDS011;5268;49.346;9.522;2023-06-14T07:10:57;6.68;;;4.57;;
10440;SDS011;5268;49.346;9.522;2023-06-14T07:15:59;5.13;;;4.60;;
10440;SDS011;5268;49.346;9.522;2023-06-14T07:21:01;5.38;;;4.18;;
10440;SDS011;5268;49.346;9.522;2023-06-14T07:26:05;6.35;;;4.43;;
10440;SDS011;5268;49.346;9.522;2023-06-14T07:31:07;7.40;;;4.65;;
10440;SDS011;5268;49.346;9.522;2023-06-14T07:36:09;5.93;;;4.70;;
10440;SDS011;5268;49.346;9.522;2023-06-14T07:41:12;5.75;;;4.20;;
10440;SDS011;5268;49.346;9.522;2023-06-14T07:46:14;4.60;;;4.20;;
10440;SDS011;5268;49.346;9.522;2023-06-14T07:51:16;8.50;;;4.43;;
10440;SDS011;5268;49.346;9.522;2023-06-14T07:56:19;5.13;;;4.30;;
10440;SDS011;5268;49.346;9.522;2023-06-14T08:01:22;4.63;;;3.80;;
10440;SDS011;5268;49.346;9.522;2023-06-14T08:06:25;4.95;;;4.25;;
10440;SDS011;5268;49.346;9.522;2023-06-14T08:11:28;5.20;;;3.90;;
10440;SDS011;5268;49.346;9.522;2023-06-14T08:16:30;5.93;;;4.35;;
10440;SDS011;5268;49.346;9.522;2023-06-14T08:21:33;5.25;;;4.25;;
10440;SDS011;5268;49.346;9.522;2023-06-14T08:26:38;5.70;;;4.35;;
10440;SDS011;5268;49.346;9.522;2023-06-14T08:31:40;6.45;;;4.45;;
10440;SDS011;5268;49.346;9.522;2023-06-14T08:36:42;5.47;;;4.40;;
10440;SDS011;5268;49.346;9.522;2023-06-14T08:41:46;7.60;;;4.50;;
10440;SDS011;5268;49.346;9.522;2023-06-14T08:46:48;5.30;;;4.10;;
10440;SDS011;5268;49.346;9.522;2023-06-14T08:51:53;5.15;;;4.40;;
10440;SDS011;5268;49.346;9.522;2023-06-14T08:57:00;7.70;;;4.28;;
10440;SDS011;5268;49.346;9.522;2023-06-14T09:02:04;7.35;;;4.22;;
10440;SDS011;5268;49.346;9.522;2023-06-14T09:07:07;6.22;;;4.97;;
10440;SDS011;5268;49.346;9.522;2023-06-14T09:12:11;7.72;;;4.28;;
10440;SDS011;5268;49.346;9.522;2023-06-14T09:17:13;7.78;;;4.18;;
10440;SDS011;5268;49.346;9.522;2023-06-14T09:22:17;6.97;;;4.43;;
10440;SDS011;5268;49.346;9.522;2023-06-14T09:27:20;5.00;;;4.18;;
10440;SDS011;5268;49.346;9.522;2023-06-14T09:32:22;4.50;;;3.95;;
10440;SDS011;5268;49.346;9.522;2023-06-14T09:37:28;5.32;;;4.15;;
10440;SDS011;5268;49.346;9.522;2023-06-14T09:42:32;6.55;;;4.22;;
10440;SDS011;5268;49.346;9.522;2023-06-14T09:47:35;6.90;;;4.13;;
10440;SDS011;5268;49.346;9.522;2023-06-14T09:52:37;5.13;;;3.90;;
10440;SDS011;5268;49.346;9.522;2023-06-14T09:57:42;5.43;;;3.80;;
10440;SDS011;5268;49.346;9.522;2023-06-14T10:02:47;4.88;;;3.92;;
10440;SDS011;5268;49.346;9.522;2023-06-14T10:07:55;4.18;;;3.78;;
10440;SDS011;5268;49.346;9.522;2023-06-14T10:13:02;6.57;;;3.95;;
10440;SDS011;5268;49.346;9.522;2023-06-14T10:18:06;4.82;;;3.80;;
10440;SDS011;5268;49.346;9.522;2023-06-14T10:23:16;3.83;;;3.40;;
10440;SDS011;5268;49.346;9.522;2023-06-14T10:28:22;5.85;;;3.70;;
10440;SDS011;5268;49.346;9.522;2023-06-14T10:33:25;7.32;;;3.50;;
10440;SDS011;5268;49.346;9.522;2023-06-14T10:38:30;6.20;;;3.97;;
10440;SDS011;5268;49.346;9.522;2023-06-14T10:43:34;5.72;;;4.07;;
10440;SDS011;5268;49.346;9.522;2023-06-14T10:48:40;5.20;;;3.80;;
10440;SDS011;5268;49.346;9.522;2023-06-14T10:53:42;5.72;;;3.50;;
10440;SDS011;5268;49.346;9.522;2023-06-14T10:58:45;4.57;;;3.97;;
10440;SDS011;5268;49.346;9.522;2023-06-14T11:03:50;5.57;;;3.80;;
10440;SDS011;5268;49.346;9.522;2023-06-14T11:14:42;6.80;;;3.60;;
10440;SDS011;5268;49.346;9.522;2023-06-14T11:19:48;4.35;;;3.70;;
10440;SDS011;5268;49.346;9.522;2023-06-14T11:24:50;5.93;;;3.50;;
10440;SDS011;5268;49.346;9.522;2023-06-14T11:29:53;4.93;;;3.45;;
10440;SDS011;5268;49.346;9.522;2023-06-14T11:34:55;3.80;;;3.50;;
10440;SDS011;5268;49.346;9.522;2023-06-14T11:39:58;4.00;;;3.65;;
10440;SDS011;5268;49.346;9.522;2023-06-14T11:45:02;4.55;;;3.72;;
10440;SDS011;5268;49.346;9.522;2023-06-14T11:50:05;4.38;;;3.45;;
10440;SDS011;5268;49.346;9.522;2023-06-14T11:55:09;4.30;;;3.75;;
10440;SDS011;5268;49.346;9.522;2023-06-14T12:00:14;5.50;;;3.53;;
10440;SDS011;5268;49.346;9.522;2023-06-14T12:05:19;4.03;;;3.60;;
10440;SDS011;5268;49.346;9.522;2023-06-14T12:10:22;4.15;;;3.70;;
10440;SDS011;5268;49.346;9.522;2023-06-14T12:15:27;6.28;;;3.83;;
10440;SDS011;5268;49.346;9.522;2023-06-14T12:20:29;4.57;;;4.18;;
10440;SDS011;5268;49.346;9.522;2023-06-14T12:25:32;6.15;;;3.58;;
10440;SDS011;5268;49.346;9.522;2023-06-14T12:30:37;4.07;;;3.65;;
10440;SDS011;5268;49.346;9.522;2023-06-14T12:35:39;5.60;;;3.85;;
10440;SDS011;5268;49.346;9.522;2023-06-14T12:40:41;5.25;;;3.60;;
10440;SDS011;5268;49.346;9.522;2023-06-14T12:45:44;3.83;;;3.45;;
10440;SDS011;5268;49.346;9.522;2023-06-14T12:50:47;7.10;;;3.30;;
10440;SDS011;5268;49.346;9.522;2023-06-14T12:55:49;5.35;;;3.80;;
10440;SDS011;5268;49.346;9.522;2023-06-14T13:00:53;5.63;;;3.80;;
10440;SDS011;5268;49.346;9.522;2023-06-14T13:05:54;4.72;;;3.80;;
10440;SDS011;5268;49.346;9.522;2023-06-14T13:10:56;11.65;;;5.30;;
10440;SDS011;5268;49.346;9.522;2023-06-14T13:16:00;4.38;;;3.63;;
10440;SDS011;5268;49.346;9.522;2023-06-14T13:21:02;5.85;;;4.05;;
10440;SDS011;5268;49.346;9.522;2023-06-14T13:26:04;5.75;;;3.88;;
10440;SDS011;5268;49.346;9.522;2023-06-14T13:31:07;7.47;;;3.60;;
10440;SDS011;5268;49.346;9.522;2023-06-14T13:36:09;4.78;;;3.75;;
10440;SDS011;5268;49.346;9.522;2023-06-14T13:41:11;4.57;;;3.45;;
10440;SDS011;5268;49.346;9.522;2023-06-14T13:46:14;5.20;;;3.72;;
10440;SDS011;5268;49.346;9.522;2023-06-14T13:51:17;7.97;;;3.90;;
10440;SDS011;5268;49.346;9.522;2023-06-14T13:56:19;5.35;;;3.80;;
10440;SDS011;5268;49.346;9.522;2023-06-14T14:01:24;4.65;;;3.85;;
10440;SDS011;5268;49.346;9.522;2023-06-14T14:06:26;4.72;;;3.40;;
10440;SDS011;5268;49.346;9.522;2023-06-14T14:11:28;4.57;;;3.70;;
10440;SDS011;5268;49.346;9.522;2023-06-14T14:16:34;7.10;;;3.60;;
10440;SDS011;5268;49.346;9.522;2023-06-14T14:21:37;4.68;;;3.40;;
10440;SDS011;5268;49.346;9.522;2023-06-14T14:26:39;4.30;;;3.78;;
10440;SDS011;5268;49.346;9.522;2023-06-14T14:31:43;4.95;;;3.80;;
10440;SDS011;5268;49.346;9.522;2023-06-14T14:36:45;5.07;;;3.65;;
10440;SDS011;5268;49.346;9.522;2023-06-14T14:41:47;4.93;;;3.60;;
10440;SDS011;5268;49.346;9.522;2023-06-14T14:46:50;6.28;;;3.60;;
10440;SDS011;5268;49.346;9.522;2023-06-14T14:51:52;7.03;;;3.80;;
10440;SDS011;5268;49.346;9.522;2023-06-14T14:56:56;5.30;;;3.55;;
10440;SDS011;5268;49.346;9.522;2023-06-14T15:01:59;4.95;;;3.40;;
10440;SDS011;5268;49.346;9.522;2023-06-14T15:07:01;5.45;;;3.40;;
10440;SDS011;5268;49.346;9.522;2023-06-14T15:12:04;5.80;;;3.67;;
10440;SDS011;5268;49.346;9.522;2023-06-14T15:17:08;6.60;;;3.60;;
10440;SDS011;5268;49.346;9.522;2023-06-14T15:22:11;5.63;;;3.83;;
10440;SDS011;5268;49.346;9.522;2023-06-14T15:27:15;6.40;;;3.65;;
10440;SDS011;5268;49.346;9.522;2023-06-14T15:32:18;3.95;;;3.55;;
10440;SDS011;5268;49.346;9.522;2023-06-14T15:37:20;4.88;;;3.58;;
10440;SDS011;5268;49.346;9.522;2023-06-14T15:42:22;4.00;;;3.60;;
10440;SDS011;5268;49.346;9.522;2023-06-14T15:47:25;6.05;;;3.50;;
10440;SDS011;5268;49.346;9.522;2023-06-14T15:52:27;4.50;;;3.53;;
10440;SDS011;5268;49.346;9.522;2023-06-14T15:57:29;5.10;;;3.20;;
10440;SDS011;5268;49.346;9.522;2023-06-14T16:02:33;5.22;;;3.65;;
10440;SDS011;5268;49.346;9.522;2023-06-14T16:07:35;4.63;;;3.40;;
10440;SDS011;5268;49.346;9.522;2023-06-14T16:12:37;5.95;;;3.58;;
10440;SDS011;5268;49.346;9.522;2023-06-14T16:17:40;6.57;;;4.07;;
10440;SDS011;5268;49.346;9.522;2023-06-14T16:22:42;5.55;;;3.58;;
10440;SDS011;5268;49.346;9.522;2023-06-14T16:27:44;6.28;;;3.70;;
10440;SDS011;5268;49.346;9.522;2023-06-14T16:32:47;5.38;;;3.60;;
10440;SDS011;5268;49.346;9.522;2023-06-14T16:37:49;5.32;;;3.28;;
10440;SDS011;5268;49.346;9.522;2023-06-14T16:42:52;3.85;;;3.40;;
10440;SDS011;5268;49.346;9.522;2023-06-14T16:47:56;4.97;;;3.50;;
10440;SDS011;5268;49.346;9.522;2023-06-14T16:52:58;4.78;;;3.25;;
10440;SDS011;5268;49.346;9.522;2023-06-14T16:58:00;5.53;;;3.40;;
10440;SDS011;5268;49.346;9.522;2023-06-14T17:03:03;4.15;;;3.10;;
10440;SDS011;5268;49.346;9.522;2023-06-14T17:08:05;5.28;;;3.60;;
10440;SDS011;5268;49.346;9.522;2023-06-14T17:13:07;6.05;;;3.20;;
10440;SDS011;5268;49.346;9.522;2023-06-14T17:18:10;4.53;;;2.88;;
10440;SDS011;5268;49.346;9.522;2023-06-14T17:23:12;4.00;;;3.60;;
10440;SDS011;5268;49.346;9.522;2023-06-14T17:28:14;5.85;;;3.67;;
10440;SDS011;5268;49.346;9.522;2023-06-14T17:33:18;4.93;;;3.20;;
10440;SDS011;5268;49.346;9.522;2023-06-14T17:38:20;4.20;;;3.15;;
10440;SDS011;5268;49.346;9.522;2023-06-14T17:43:22;5.75;;;3.53;;
10440;SDS011;5268;49.346;9.522;2023-06-14T17:48:25;5.40;;;3.33;;
10440;SDS011;5268;49.346;9.522;2023-06-14T17:53:32;4.30;;;2.92;;
10440;SDS011;5268;49.346;9.522;2023-06-14T17:58:35;3.30;;;3.00;;
10440;SDS011;5268;49.346;9.522;2023-06-14T18:03:38;3.88;;;3.30;;
10440;SDS011;5268;49.346;9.522;2023-06-14T18:08:40;4.53;;;3.20;;
10440;SDS011;5268;49.346;9.522;2023-06-14T18:13:43;4.32;;;3.10;;
10440;SDS011;5268;49.346;9.522;2023-06-14T18:18:46;3.80;;;3.30;;
10440;SDS011;5268;49.346;9.522;2023-06-14T18:23:49;3.58;;;3.10;;
10440;SDS011;5268;49.346;9.522;2023-06-14T18:28:53;3.78;;;3.20;;
10440;SDS011;5268;49.346;9.522;2023-06-14T18:33:56;3.58;;;2.90;;
10440;SDS011;5268;49.346;9.522;2023-06-14T18:38:58;6.18;;;2.97;;
10440;SDS011;5268;49.346;9.522;2023-06-14T18:44:00;3.92;;;3.03;;
10440;SDS011;5268;49.346;9.522;2023-06-14T18:49:04;3.97;;;2.80;;
10440;SDS011;5268;49.346;9.522;2023-06-14T18:54:05;3.28;;;2.80;;
10440;SDS011;5268;49.346;9.522;2023-06-14T18:59:07;4.53;;;3.10;;
10440;SDS011;5268;49.346;9.522;2023-06-14T19:04:11;3.20;;;2.90;;
10440;SDS011;5268;49.346;9.522;2023-06-14T19:09:13;3.67;;;3.00;;
10440;SDS011;5268;49.346;9.522;2023-06-14T19:14:15;5.03;;;3.10;;
10440;SDS011;5268;49.346;9.522;2023-06-14T19:19:19;6.03;;;3.17;;
10440;SDS011;5268;49.346;9.522;2023-06-14T19:24:21;3.85;;;3.35;;
10440;SDS011;5268;49.346;9.522;2023-06-14T19:29:23;4.25;;;2.90;;
10440;SDS011;5268;49.346;9.522;2023-06-14T19:34:27;4.82;;;3.30;;
10440;SDS011;5268;49.346;9.522;2023-06-14T19:39:28;3.42;;;3.13;;
10440;SDS011;5268;49.346;9.522;2023-06-14T19:44:30;4.80;;;3.30;;
10440;SDS011;5268;49.346;9.522;2023-06-14T19:49:34;4.95;;;3.20;;
10440;SDS011;5268;49.346;9.522;2023-06-14T19:54:36;4.22;;;2.95;;
10440;SDS011;5268;49.346;9.522;2023-06-14T19:59:38;5.00;;;3.13;;
10440;SDS011;5268;49.346;9.522;2023-06-14T20:04:41;5.35;;;3.55;;
10440;SDS011;5268;49.346;9.522;2023-06-14T20:09:43;4.28;;;3.80;;
10440;SDS011;5268;49.346;9.522;2023-06-14T20:14:46;4.97;;;3.80;;
10440;SDS011;5268;49.346;9.522;2023-06-14T20:19:49;5.07;;;3.17;;
10440;SDS011;5268;49.346;9.522;2023-06-14T20:24:52;5.68;;;3.00;;
10440;SDS011;5268;49.346;9.522;2023-06-14T20:29:54;3.33;;;2.95;;
10440;SDS011;5268;49.346;9.522;2023-06-14T20:34:58;3.97;;;2.92;;
10440;SDS011;5268;49.346;9.522;2023-06-14T20:40:00;5.10;;;2.80;;
10440;SDS011;5268;49.346;9.522;2023-06-14T20:45:06;4.32;;;3.00;;
10440;SDS011;5268;49.346;9.522;2023-06-14T20:50:12;3.83;;;2.95;;
10440;SDS011;5268;49.346;9.522;2023-06-14T20:55:16;3.05;;;2.75;;
10440;SDS011;5268;49.346;9.522;2023-06-14T21:00:18;3.33;;;3.03;;
10440;SDS011;5268;49.346;9.522;2023-06-14T21:05:21;4.70;;;3.38;;
10440;SDS011;5268;49.346;9.522;2023-06-14T21:10:24;3.25;;;2.97;;
10440;SDS011;5268;49.346;9.522;2023-06-14T21:15:27;3.08;;;2.80;;
10440;SDS011;5268;49.346;9.522;2023-06-14T21:20:30;3.28;;;2.90;;
10440;SDS011;5268;49.346;9.522;2023-06-14T21:25:32;4.22;;;3.10;;
10440;SDS011;5268;49.346;9.522;2023-06-14T21:30:35;3.10;;;2.80;;
10440;SDS011;5268;49.346;9.522;2023-06-14T21:35:39;5.63;;;3.08;;
10440;SDS011;5268;49.346;9.522;2023-06-14T21:40:41;4.78;;;2.72;;
10440;SDS011;5268;49.346;9.522;2023-06-14T21:45:43;6.10;;;3.80;;
10440;SDS011;5268;49.346;9.522;2023-06-14T21:50:46;4.40;;;3.20;;
